tititudorancea.com
Station Historical Data
Daily Summary for March 17, 2018 Units:  Metric    English   Both
« Previous Day
Next Day »
Daily Weekly Monthly Yearly Custom
  High: Low: Average:
Temperature: -17.8 °C 16.2 °C 23.1 °C
Dew Point: -17.8 °C 4.8 °C 8.9 °C
Humidity: Humidity % 20 % 44 %
Wind Speed: 0 km/h 0 km/h 12.1 km/h
Wind Gust: 0 km/h - -
Wind:- - WSW
Pressure: 0 hPa 1002.6 hPa -
Precipitation: 0 mm    
Historical Graphs
 
 
Ararat weather Find more about Weather in Ararat, AU


 



 


Tabular Data for March 17, 2018
Time Temperature Dew Point Pressure Wind Wind Speed Wind Gust Humidity Rainfall Rate (Hourly)
-17.8 °C -17.8 °C 0 hPa Calm     Humidity % 0 mm
00:03 20.6 °C 5.4 °C 1010.7 hPa NNW 1.8 km/h 8 km/h 37 % 0 mm
00:08 20.6 °C 5.3 °C 1010.4 hPa NNW 4.7 km/h 6.4 km/h 37 % 0 mm
00:13 20.5 °C 5.7 °C 1010.4 hPa North 2.1 km/h 5.6 km/h 38 % 0 mm
00:18 20.4 °C 5.6 °C 1010.7 hPa North 4.5 km/h 6.4 km/h 38 % 0 mm
00:23 20.3 °C 5.5 °C 1010.4 hPa NNW 4.8 km/h 7.4 km/h 38 % 0 mm
00:28 20.2 °C 5.8 °C 1010.7 hPa NNW 3.5 km/h 5.6 km/h 39 % 0 mm
00:33 20.1 °C 5.7 °C 1010.4 hPa NNW 2.4 km/h 6.4 km/h 39 % 0 mm
00:38 19.9 °C 5.9 °C 1010.4 hPa Calm   3.7 km/h 40 % 0 mm
00:43 19.8 °C 5.8 °C 1010.4 hPa NNW 1.9 km/h 3.7 km/h 40 % 0 mm
00:48 19.7 °C 6.1 °C 1010.4 hPa NNW 1.4 km/h 3.7 km/h 41 % 0 mm
00:53 19.5 °C 5.9 °C 1010.4 hPa NNW 3.7 km/h 5.6 km/h 41 % 0 mm
00:58 19.4 °C 5.8 °C 1010.4 hPa NNW 2.3 km/h 5.6 km/h 41 % 0 mm
01:03 19.2 °C 6 °C 1010.4 hPa North 5.1 km/h 7.4 km/h 42 % 0 mm
01:08 19.1 °C 5.9 °C 1010.4 hPa North 1.4 km/h 3.7 km/h 42 % 0 mm
01:13 19.1 °C 6.2 °C 1010.4 hPa NNW 4.2 km/h 5.6 km/h 43 % 0 mm
01:18 19.2 °C 5.9 °C 1010.4 hPa NNW 1.1 km/h 5.6 km/h 42 % 0 mm
01:23 19.2 °C 6 °C 1010.4 hPa Calm     42 % 0 mm
01:28 19.2 °C 6.3 °C 1010.4 hPa Calm     43 % 0 mm
01:33 19.1 °C 6.2 °C 1010.4 hPa Calm     43 % 0 mm
01:38 18.9 °C 6.4 °C 1010.4 hPa NNW 0.8 km/h 1.9 km/h 44 % 0 mm
01:43 18.8 °C 6.3 °C 1010.4 hPa NNW 3.7 km/h 5.6 km/h 44 % 0 mm
01:48 18.7 °C 6.2 °C 1010.4 hPa NNW 4 km/h 5.6 km/h 44 % 0 mm
01:53 18.8 °C 6.3 °C 1010.4 hPa North 6.9 km/h 9.3 km/h 44 % 0 mm
01:58 18.8 °C 6.3 °C 1010.4 hPa NNW 6 km/h 7.4 km/h 44 % 0 mm
02:03 18.8 °C 6.3 °C 1010.4 hPa North 7.2 km/h 9.3 km/h 44 % 0 mm
02:08 18.8 °C 6.3 °C 1010.4 hPa North 5.3 km/h 8 km/h 44 % 0 mm
02:13 18.7 °C 6.6 °C 1010.4 hPa North 4.3 km/h 7.4 km/h 45 % 0 mm
02:18 18.6 °C 6.4 °C 1010.4 hPa North 4.7 km/h 5.6 km/h 45 % 0 mm
02:23 18.5 °C 6.7 °C 1010.4 hPa North 6.4 km/h 9.3 km/h 46 % 0 mm
02:28 18.4 °C 6.6 °C 1010.4 hPa North 8.4 km/h 11.3 km/h 46 % 0 mm
02:33 18.4 °C 6.9 °C 1010 hPa North 9.8 km/h 11.3 km/h 47 % 0 mm
02:38 18.3 °C 6.8 °C 1010 hPa North 7.1 km/h 9.3 km/h 47 % 0 mm
02:43 18.3 °C 7.1 °C 1010 hPa North 8.2 km/h 13 km/h 48 % 0 mm
02:48 18.3 °C 7.1 °C 1010 hPa North 6.1 km/h 13 km/h 48 % 0 mm
02:53 18.3 °C 7.1 °C 1010 hPa North 9 km/h 12.9 km/h 48 % 0 mm
02:58 18.3 °C 7.4 °C 1010 hPa North 9.3 km/h 12.9 km/h 49 % 0 mm
03:03 18.3 °C 7.7 °C 1009.7 hPa North 5.8 km/h 13 km/h 50 % 0 mm
03:08 18.3 °C 7.7 °C 1009.7 hPa North 6.6 km/h 11.1 km/h 50 % 0 mm
03:13 18.3 °C 7.7 °C 1009.7 hPa North 6.9 km/h 11.1 km/h 50 % 0 mm
03:18 18.3 °C 7.9 °C 1010 hPa North 6.8 km/h 9.3 km/h 51 % 0 mm
03:23 18.3 °C 8.2 °C 1010 hPa North 7.7 km/h 13 km/h 52 % 0 mm
03:28 18.3 °C 8.2 °C 1009.7 hPa North 6.9 km/h 8 km/h 52 % 0 mm
03:33 18.2 °C 8.4 °C 1009.7 hPa North 4.2 km/h 5.6 km/h 53 % 0 mm
03:38 18.1 °C 8.7 °C 1010 hPa North 3.2 km/h 5.6 km/h 54 % 0 mm
03:43 18.1 °C 8.7 °C 1010 hPa North 2.9 km/h 5.6 km/h 54 % 0 mm
03:48 18 °C 8.8 °C 1010 hPa North 3.7 km/h 5.6 km/h 55 % 0 mm
03:53 17.9 °C 8.7 °C 1010 hPa North 3.9 km/h 5.6 km/h 55 % 0 mm
03:58 17.8 °C 8.9 °C 1010 hPa North 4.2 km/h 8 km/h 56 % 0 mm
04:03 17.7 °C 8.8 °C 1010 hPa North 4.8 km/h 7.4 km/h 56 % 0 mm
04:08 17.6 °C 8.7 °C 1010 hPa North 5.6 km/h 7.4 km/h 56 % 0 mm
04:13 17.5 °C 8.9 °C 1010 hPa North 5.1 km/h 9.7 km/h 57 % 0 mm
04:18 17.4 °C 9.1 °C 1009.7 hPa North 6.8 km/h 9.3 km/h 58 % 0 mm
04:23 17.4 °C 9.1 °C 1009.7 hPa North 8 km/h 13 km/h 58 % 0 mm
04:28 17.4 °C 9.1 °C 1009.7 hPa North 5.5 km/h 7.4 km/h 58 % 0 mm
04:33 17.3 °C 9.2 °C 1010 hPa North 7.4 km/h 9.3 km/h 59 % 0 mm
04:38 17.3 °C 9.2 °C 1009.7 hPa North 6.9 km/h 9.3 km/h 59 % 0 mm
04:43 17.2 °C 9.1 °C 1010 hPa North 9.8 km/h 11.1 km/h 59 % 0 mm
04:48 17.1 °C 9.1 °C 1010 hPa North 5.8 km/h 7.4 km/h 59 % 0 mm
04:53 17.1 °C 9 °C 1010 hPa NNW 5.6 km/h 9.3 km/h 59 % 0 mm
04:58 16.9 °C 9.1 °C 1010 hPa North 2.4 km/h 3.7 km/h 60 % 0 mm
05:03 16.9 °C 9.1 °C 1010 hPa North 4.8 km/h 9.3 km/h 60 % 0 mm
05:08 16.9 °C 9.3 °C 1010 hPa NNW 4.3 km/h 5.6 km/h 61 % 0 mm
05:13 16.8 °C 9.3 °C 1010 hPa NNW 3.4 km/h 5.6 km/h 61 % 0 mm
05:18 16.8 °C 9.4 °C 1010 hPa North 4.8 km/h 9.3 km/h 62 % 0 mm
05:23 16.7 °C 9.3 °C 1010 hPa North 3.9 km/h 5.6 km/h 62 % 0 mm
05:28 16.6 °C 9.6 °C 1009.7 hPa North 3.9 km/h 7.4 km/h 63 % 0 mm
05:33 16.6 °C 9.5 °C 1009.7 hPa North 5.3 km/h 5.6 km/h 63 % 0 mm
05:38 16.5 °C 9.7 °C 1009.7 hPa NNW 5.5 km/h 7.4 km/h 64 % 0 mm
05:43 16.5 °C 9.7 °C 1009.4 hPa NNW 6 km/h 9.3 km/h 64 % 0 mm
05:48 16.4 °C 9.6 °C 1009.7 hPa North 6.6 km/h 9.3 km/h 64 % 0 mm
05:53 16.4 °C 9.6 °C 1009.7 hPa NNW 2.7 km/h 5.6 km/h 64 % 0 mm
05:58 16.4 °C 9.6 °C 1009.7 hPa NNW 6.8 km/h 9.3 km/h 64 % 0 mm
06:03 16.4 °C 9.6 °C 1010 hPa NNW 6.6 km/h 9.3 km/h 64 % 0 mm
06:08 16.4 °C 9.6 °C 1010 hPa North 6.1 km/h 7.4 km/h 64 % 0 mm
06:13 16.4 °C 9.6 °C 1009.7 hPa North 4.5 km/h 5.6 km/h 64 % 0 mm
06:18 16.4 °C 9.8 °C 1009.7 hPa North 5.1 km/h 9.3 km/h 65 % 0 mm
06:23 16.4 °C 9.8 °C 1009.7 hPa North 2.7 km/h 5.6 km/h 65 % 0 mm
06:28 16.3 °C 9.7 °C 1009.7 hPa NNW 5.6 km/h 8 km/h 65 % 0 mm
06:33 16.3 °C 9.9 °C 1010 hPa NNW 4 km/h 6.4 km/h 66 % 0 mm
06:38 16.3 °C 10.1 °C 1010 hPa NNW 3.9 km/h 5.6 km/h 67 % 0 mm
06:43 16.3 °C 10.2 °C 1009.7 hPa North 5.3 km/h 5.6 km/h 67 % 0 mm
06:48 16.3 °C 9.9 °C 1009.7 hPa NNW 6.1 km/h 7.4 km/h 66 % 0 mm
06:53 16.3 °C 9.9 °C 1010 hPa NNW 4 km/h 7.4 km/h 66 % 0 mm
06:58 16.2 °C 10.1 °C 1010 hPa NNW 6.1 km/h 9.3 km/h 67 % 0 mm
07:03 16.2 °C 10.1 °C 1010 hPa North 3.5 km/h 7.4 km/h 67 % 0 mm
07:08 16.2 °C 10.1 °C 1010 hPa NNW 5.8 km/h 7.4 km/h 67 % 0 mm
07:13 16.3 °C 10.3 °C 1009.7 hPa NNW 8 km/h 11.1 km/h 68 % 0 mm
07:18 16.3 °C 10.3 °C 1009.7 hPa NNW 6.9 km/h 11.1 km/h 68 % 0 mm
07:23 16.3 °C 10.4 °C 1009.7 hPa North 11.4 km/h 16.7 km/h 68 % 0 mm
07:28 16.4 °C 10.4 °C 1010 hPa North 6.8 km/h 9.3 km/h 68 % 0 mm
07:33 16.3 °C 10.4 °C 1009.7 hPa North 6.9 km/h 9.3 km/h 68 % 0 mm
07:38 16.3 °C 10.4 °C 1010 hPa North 4.2 km/h 5.6 km/h 68 % 0 mm
07:43 16.3 °C 10.6 °C 1010 hPa North 6.4 km/h 11.1 km/h 69 % 0 mm
07:48 16.3 °C 10.6 °C 1010 hPa North 8.2 km/h 9.3 km/h 69 % 0 mm
07:53 16.3 °C 10.6 °C 1010.4 hPa North 5.8 km/h 8 km/h 69 % 0 mm
07:58 16.3 °C 10.6 °C 1010.4 hPa North 4.5 km/h 6.4 km/h 69 % 0 mm
08:03 16.4 °C 10.7 °C 1010.4 hPa North 3.4 km/h 5.6 km/h 69 % 0 mm
08:08 16.4 °C 10.7 °C 1010.4 hPa North 4.3 km/h 7.4 km/h 69 % 0 mm
08:13 16.4 °C 10.7 °C 1010.4 hPa North 3.9 km/h 5.6 km/h 69 % 0 mm
08:18 16.5 °C 11 °C 1010.4 hPa North 6.6 km/h 7.4 km/h 70 % 0 mm
08:23 16.6 °C 11.1 °C 1010.4 hPa North 6.4 km/h 7.4 km/h 70 % 0 mm
08:28 16.8 °C 11.3 °C 1010.4 hPa North 5.3 km/h 9.3 km/h 70 % 0 mm
08:33 16.9 °C 11.4 °C 1010.7 hPa North 1.8 km/h 7.4 km/h 70 % 0 mm
08:38 17.1 °C 11.6 °C 1010.4 hPa North 7.4 km/h 11.3 km/h 70 % 0 mm
08:43 17.3 °C 11.8 °C 1010.7 hPa North 9.3 km/h 9.3 km/h 70 % 0 mm
08:48 17.6 °C 11.8 °C 1010.7 hPa North 7.7 km/h 11.3 km/h 69 % 0 mm
08:53 17.8 °C 12 °C 1010.7 hPa North 8 km/h 9.7 km/h 69 % 0 mm
08:58 18.1 °C 12.1 °C 1010.7 hPa North 11.9 km/h 11.9 km/h 68 % 0 mm
09:04 18.4 °C 12.4 °C 1010.7 hPa North 10.5 km/h 13 km/h 68 % 0 mm
09:09 18.9 °C 12.8 °C 1010.7 hPa North 7.2 km/h 13 km/h 68 % 0 mm
09:13 19.3 °C 12.8 °C 1010.7 hPa NNE 16.4 km/h 24.1 km/h 66 % 0 mm
09:18 19.3 °C 12.8 °C 1010.7 hPa NNE 13.8 km/h 18.5 km/h 66 % 0 mm
09:23 19.3 °C 12.8 °C 1010.7 hPa NNE 10.1 km/h 13 km/h 66 % 0 mm
09:28 19.5 °C 13 °C 1010.7 hPa NNE 12.1 km/h 14.8 km/h 66 % 0 mm
09:33 19.8 °C 13.1 °C 1010.7 hPa North 14.2 km/h 18.5 km/h 65 % 0 mm
09:38 20 °C 13 °C 1010.7 hPa NNE 13 km/h 16.7 km/h 64 % 0 mm
09:43 20.2 °C 13.1 °C 1010.4 hPa NNE 8.4 km/h 18.5 km/h 64 % 0 mm
09:49 20.4 °C 13.2 °C 1010.4 hPa NNE 10.8 km/h 24.1 km/h 63 % 0 mm
09:54 20.7 °C 13.1 °C 1010.4 hPa NNE 8 km/h 20.4 km/h 62 % 0 mm
10:04 20.6 °C 13.3 °C 1010.4 hPa North 13.2 km/h 22.2 km/h 63 % 0 mm
10:14 20.7 °C 13.4 °C 1010.4 hPa NE 13.5 km/h 18.5 km/h 63 % 0 mm
10:19 20.7 °C 13.4 °C 1010.7 hPa NNE 5.8 km/h 20.4 km/h 63 % 0 mm
10:24 20.9 °C 13.3 °C 1010.7 hPa NNE 12.4 km/h 16.7 km/h 62 % 0 mm
10:29 21 °C 13.4 °C 1010.4 hPa NNE 7.6 km/h 14.5 km/h 62 % 0 mm
10:34 21.4 °C 13.6 °C 1010.7 hPa North 13.4 km/h 22.2 km/h 61 % 0 mm
10:35 21.6 °C 13.7 °C 1010.7 hPa North 11.6 km/h 18.5 km/h 61 % 0 mm
10:40 21.8 °C 13.7 °C 1010.4 hPa North 15.8 km/h 18.5 km/h 60 % 0 mm
10:45 21.9 °C 13.8 °C 1010.7 hPa NNE 10.5 km/h 18.5 km/h 60 % 0 mm
10:50 22.1 °C 13.9 °C 1010.4 hPa North 17.2 km/h 22.5 km/h 60 % 0 mm
10:55 22.2 °C 13.8 °C 1010.4 hPa NNE 15.3 km/h 18.5 km/h 59 % 0 mm
11:00 22.4 °C 14.1 °C 1010 hPa NNE 16.9 km/h 24.1 km/h 59 % 0 mm
11:05 22.6 °C 13.9 °C 1010 hPa NNE 15.8 km/h 27.8 km/h 58 % 0 mm
11:10 22.8 °C 14.1 °C 1010 hPa North 14.6 km/h 24.1 km/h 58 % 0 mm
11:15 23 °C 14 °C 1010 hPa NNE 12.6 km/h 20.4 km/h 57 % 0 mm
11:20 23.3 °C 14 °C 1009.7 hPa NNW 19.6 km/h 29.6 km/h 56 % 0 mm
11:25 23.2 °C 13.9 °C 1009.7 hPa NNE 14 km/h 20.9 km/h 56 % 0 mm
11:30 23.3 °C 13.7 °C 1009.7 hPa North 22.4 km/h 33.3 km/h 55 % 0 mm
11:35 23.2 °C 13.9 °C 1009.7 hPa North 18.8 km/h 29.6 km/h 56 % 0 mm
11:40 23.6 °C 14 °C 1009.7 hPa NNW 13.8 km/h 25.9 km/h 55 % 0 mm
11:45 23.8 °C 13.9 °C 1009.4 hPa North 20.4 km/h 31.5 km/h 54 % 0 mm
11:50 24 °C 14.1 °C 1009.4 hPa North 15.9 km/h 18.5 km/h 54 % 0 mm
11:55 24.4 °C 13.9 °C 1009.4 hPa North 23.5 km/h 35.2 km/h 52 % 0 mm
12:00 24.4 °C 13.9 °C 1009.4 hPa North 17.5 km/h 24.1 km/h 52 % 0 mm
12:05 24.6 °C 14.1 °C 1009.4 hPa North 15.6 km/h 24.1 km/h 52 % 0 mm
12:10 24.8 °C 14 °C 1009.4 hPa North 15 km/h 24.1 km/h 51 % 0 mm
12:15 25.1 °C 13.9 °C 1009 hPa North 19.2 km/h 27.8 km/h 50 % 0 mm
12:20 25.3 °C 14.1 °C 1008.7 hPa NNE 15.6 km/h 18.5 km/h 50 % 0 mm
12:25 25.5 °C 13.7 °C 1008.7 hPa North 20.6 km/h 33.3 km/h 48 % 0 mm
12:30 25.6 °C 13.4 °C 1008.7 hPa NNE 19.6 km/h 29.6 km/h 47 % 0 mm
12:35 25.7 °C 13.6 °C 1008.4 hPa NNE 17.4 km/h 35.2 km/h 47 % 0 mm
12:40 25.6 °C 13.1 °C 1008.4 hPa North 22.4 km/h 35.2 km/h 46 % 0 mm
12:45 25.6 °C 13.1 °C 1008.4 hPa North 18.3 km/h 24.1 km/h 46 % 0 mm
12:50 25.8 °C 12.6 °C 1008.4 hPa North 24.6 km/h 29.6 km/h 44 % 0 mm
12:55 25.9 °C 13.1 °C 1008.4 hPa North 16.3 km/h 27.8 km/h 45 % 0 mm
13:00 26 °C 12.1 °C 1008.4 hPa North 23.7 km/h 37 km/h 42 % 0 mm
13:05 25.9 °C 12.1 °C 1008.4 hPa NNW 21.1 km/h 31.5 km/h 42 % 0 mm
13:10 26.1 °C 11.8 °C 1008 hPa NW 22.7 km/h 35.2 km/h 41 % 0 mm
13:15 26.2 °C 11.2 °C 1008 hPa NNE 26.7 km/h 35.4 km/h 39 % 0 mm
13:20 26.6 °C 11.4 °C 1007.7 hPa North 15.6 km/h 31.5 km/h 39 % 0 mm
13:25 27 °C 11.4 °C 1007.7 hPa NNE 20.8 km/h 33.3 km/h 38 % 0 mm
13:30 27.1 °C 11.6 °C 1007.7 hPa NNE 28.3 km/h 40.7 km/h 38 % 0 mm
13:35 27.3 °C 11.3 °C 1007.3 hPa NNE 18.3 km/h 33.3 km/h 37 % 0 mm
13:40 27.8 °C 11.3 °C 1007.3 hPa North 25.6 km/h 35.2 km/h 36 % 0 mm
13:45 28.1 °C 11.6 °C 1007.3 hPa North 15.8 km/h 24.1 km/h 36 % 0 mm
13:50 28.3 °C 10.9 °C 1007 hPa North 24.3 km/h 31.5 km/h 34 % 0 mm
13:55 28.5 °C 10.7 °C 1007 hPa North 26.1 km/h 37 km/h 33 % 0 mm
14:00 28.6 °C 10.2 °C 1007 hPa North 15.8 km/h 37 km/h 32 % 0 mm
14:05 29.2 °C 9.8 °C 1007 hPa North 19.8 km/h 33.3 km/h 30 % 0 mm
14:10 29.4 °C 9.6 °C 1007.3 hPa NNE 23.3 km/h 38.9 km/h 29 % 0 mm
14:15 29.3 °C 9.4 °C 1007 hPa NNW 24.1 km/h 35.4 km/h 29 % 0 mm
14:20 29.2 °C 8.8 °C 1007 hPa NNW 18 km/h 30.6 km/h 28 % 0 mm
14:25 29.2 °C 8.8 °C 1007 hPa NW 17.1 km/h 27.4 km/h 28 % 0 mm
14:30 29.4 °C 9 °C 1007 hPa North 26.9 km/h 33.3 km/h 28 % 0 mm
14:35 29.4 °C 9 °C 1007 hPa NW 16.6 km/h 24.1 km/h 28 % 0 mm
14:40 29.6 °C 8.6 °C 1006.7 hPa North 20.4 km/h 38.9 km/h 27 % 0 mm
14:45 29.7 °C 8.1 °C 1006.3 hPa North 15.9 km/h 24.1 km/h 26 % 0 mm
14:50 29.9 °C 7.7 °C 1006.3 hPa North 18.3 km/h 27.8 km/h 25 % 0 mm
14:55 30 °C 7.2 °C 1006.3 hPa North 20.3 km/h 31.5 km/h 24 % 0 mm
15:00 30.1 °C 6.7 °C 1006.3 hPa NE 23.7 km/h 38.6 km/h 23 % 0 mm
15:05 30 °C 6.6 °C 1006.3 hPa North 13.8 km/h 31.5 km/h 23 % 0 mm
15:10 30.2 °C 6.7 °C 1006.3 hPa North 26.4 km/h 31.5 km/h 23 % 0 mm
15:15 30.3 °C 6.2 °C 1006.3 hPa NNE 24 km/h 46.3 km/h 22 % 0 mm
15:20 30.6 °C 6.4 °C 1006.3 hPa North 21.9 km/h 31.5 km/h 22 % 0 mm
15:25 30.7 °C 5.8 °C 1006.3 hPa North 20.8 km/h 29.6 km/h 21 % 0 mm
15:30 30.5 °C 5.7 °C 1006 hPa NNE 18.3 km/h 25.9 km/h 21 % 0 mm
15:35 30.5 °C 5.7 °C 1006 hPa NNW 16.1 km/h 27.4 km/h 21 % 0 mm
15:40 30.3 °C 5.6 °C 1006 hPa NNW 22 km/h 42.6 km/h 21 % 0 mm
15:45 30.2 °C 5.4 °C 1005.6 hPa North 14.6 km/h 37 km/h 21 % 0 mm
15:50 30.3 °C 5.6 °C 1005.6 hPa NNW 20.1 km/h 31.5 km/h 21 % 0 mm
15:55 30.3 °C 4.8 °C 1005.6 hPa NNE 22.5 km/h 31.5 km/h 20 % 0 mm
16:00 30.4 °C 4.9 °C 1005.6 hPa North 16.1 km/h 33.3 km/h 20 % 0 mm
16:05 30.6 °C 5.1 °C 1005.3 hPa North 19 km/h 25.9 km/h 20 % 0 mm
16:10 30.6 °C 5.1 °C 1005.3 hPa NNE 21.1 km/h 35.2 km/h 20 % 0 mm
16:15 30.5 °C 5 °C 1005 hPa NNE 26.1 km/h 35.2 km/h 20 % 0 mm
16:20 30.5 °C 5.7 °C 1005 hPa North 19.2 km/h 33.3 km/h 21 % 0 mm
16:25 30.5 °C 5.7 °C 1005 hPa North 19 km/h 38.9 km/h 21 % 0 mm
16:30 30.5 °C 5.7 °C 1005 hPa NNW 22.7 km/h 42.6 km/h 21 % 0 mm
16:35 30.6 °C 5.7 °C 1004.6 hPa North 23.2 km/h 27.8 km/h 21 % 0 mm
16:40 30.6 °C 5.1 °C 1004.6 hPa North 33 km/h 41.8 km/h 20 % 0 mm
16:45 30.5 °C 5.7 °C 1004.6 hPa North 26.1 km/h 40.7 km/h 21 % 0 mm
16:50 30.6 °C 5.7 °C 1005 hPa NNW 21.1 km/h 31.5 km/h 21 % 0 mm
16:55 30.7 °C 5.8 °C 1005.3 hPa NW 20.4 km/h 27.4 km/h 21 % 0 mm
17:00 30.6 °C 5.1 °C 1005.3 hPa North 29.5 km/h 44.4 km/h 20 % 0 mm
17:05 30.4 °C 5.7 °C 1005.3 hPa NNW 25.7 km/h 48.1 km/h 21 % 0 mm
17:10 30.3 °C 5.6 °C 1005.3 hPa NNW 27.4 km/h 35.2 km/h 21 % 0 mm
17:15 30.2 °C 5.4 °C 1005.6 hPa North 20 km/h 37 km/h 21 % 0 mm
17:20 30.1 °C 5.4 °C 1005.6 hPa NNW 20.4 km/h 31.5 km/h 21 % 0 mm
17:25 30.1 °C 5.3 °C 1005.6 hPa North 23.5 km/h 42.6 km/h 21 % 0 mm
17:30 30 °C 5.3 °C 1005.6 hPa North 26.7 km/h 38.9 km/h 21 % 0 mm
17:33 29.9 °C 5.9 °C 1005.6 hPa NNE 14.6 km/h 20.4 km/h 22 % 0 mm
17:38 29.9 °C 5.9 °C 1005.6 hPa NNW 22.9 km/h 24.1 km/h 22 % 0 mm
17:43 29.9 °C 5.9 °C 1005 hPa North 22.9 km/h 31.5 km/h 22 % 0 mm
17:48 29.8 °C 5.8 °C 1005 hPa NNW 18 km/h 31.5 km/h 22 % 0 mm
17:53 29.8 °C 5.8 °C 1005 hPa North 27 km/h 42.6 km/h 22 % 0 mm
17:58 29.6 °C 6.3 °C 1005 hPa North 17.1 km/h 40.7 km/h 23 % 0 mm
18:03 29.4 °C 6.1 °C 1004.3 hPa North 23.7 km/h 31.5 km/h 23 % 0 mm
18:08 29.3 °C 6.6 °C 1004.6 hPa NW 17.5 km/h 29.6 km/h 24 % 0 mm
18:13 29.3 °C 6.7 °C 1004.6 hPa North 21.9 km/h 35.2 km/h 24 % 0 mm
18:18 29.4 °C 6.1 °C 1004.3 hPa North 22.9 km/h 29.6 km/h 23 % 0 mm
18:23 29.4 °C 6.1 °C 1004.3 hPa North 17.7 km/h 29.6 km/h 23 % 0 mm
18:28 29.4 °C 6.1 °C 1004.6 hPa North 19.8 km/h 27.8 km/h 23 % 0 mm
18:33 29.4 °C 6.1 °C 1004.3 hPa NNE 23.5 km/h 35.4 km/h 23 % 0 mm
18:38 29.4 °C 6.1 °C 1004.6 hPa North 20.8 km/h 31.5 km/h 23 % 0 mm
18:43 29.4 °C 6.1 °C 1005 hPa NNE 16.1 km/h 35.2 km/h 23 % 0 mm
18:48 29.3 °C 6.1 °C 1005 hPa NNW 24.6 km/h 27.8 km/h 23 % 0 mm
18:53 29.3 °C 6.6 °C 1005 hPa North 22.2 km/h 46.3 km/h 24 % 0 mm
18:58 29.2 °C 6.5 °C 1005.3 hPa North 21.1 km/h 38.9 km/h 24 % 0 mm
19:03 29.2 °C 6.5 °C 1005.3 hPa NNW 21.1 km/h 29.6 km/h 24 % 0 mm
19:08 29.1 °C 6.4 °C 1005.3 hPa North 18 km/h 31.5 km/h 24 % 0 mm
19:13 29 °C 6.4 °C 1005.3 hPa NNW 10.5 km/h 25.9 km/h 24 % 0 mm
19:18 28.8 °C 6.8 °C 1005.3 hPa North 14 km/h 22.2 km/h 25 % 0 mm
19:23 28.6 °C 7.8 °C 1005 hPa NNW 16.3 km/h 20.4 km/h 27 % 0 mm
19:28 28.5 °C 7.7 °C 1005 hPa NNW 9 km/h 16.7 km/h 27 % 0 mm
19:33 28.3 °C 8.6 °C 1005 hPa North 28.2 km/h 48.1 km/h 29 % 0 mm
19:38 27.9 °C 9.7 °C 1005 hPa North 25.4 km/h 42.6 km/h 32 % 0 mm
19:43 27.4 °C 9.7 °C 1004.6 hPa WNW 40.9 km/h 51.8 km/h 33 % 0 mm
19:48 26.8 °C 10.1 °C 1003.9 hPa NW 33.8 km/h 40.7 km/h 35 % 0 mm
19:53 27.7 °C 8.5 °C 1003.6 hPa WNW 40.9 km/h 55.5 km/h 30 % 0 mm
19:58 28.2 °C 8.5 °C 1003.6 hPa NW 29.3 km/h 46.3 km/h 29 % 0 mm
20:03 28.7 °C 7.8 °C 1002.9 hPa NNW 22.4 km/h 42.6 km/h 27 % 0 mm
20:08 28.7 °C 8.3 °C 1003.3 hPa North 12.2 km/h 16.7 km/h 28 % 0 mm
20:13 28.2 °C 8.9 °C 1003.3 hPa North 10.6 km/h 16.7 km/h 30 % 0 mm
20:18 27.8 °C 9.1 °C 1003.6 hPa North 10.5 km/h 18.5 km/h 31 % 0 mm
20:23 27.6 °C 8.9 °C 1003.3 hPa North 10.8 km/h 16.7 km/h 31 % 0 mm
20:28 27.4 °C 9.3 °C 1003.6 hPa North 10.3 km/h 18.5 km/h 32 % 0 mm
20:33 27.2 °C 9.1 °C 1003.6 hPa NNE 13.4 km/h 18.5 km/h 32 % 0 mm
20:38 27.1 °C 9.4 °C 1003.9 hPa NNE 9.7 km/h 16.7 km/h 33 % 0 mm
20:43 26.8 °C 9.2 °C 1003.9 hPa NNE 9.7 km/h 14.8 km/h 33 % 0 mm
20:48 26.7 °C 9.5 °C 1004.3 hPa North 9.7 km/h 14.8 km/h 34 % 0 mm
20:53 26.5 °C 9.3 °C 1004.3 hPa NNW 9.8 km/h 18.5 km/h 34 % 0 mm
20:58 26.4 °C 9.7 °C 1004.6 hPa North 8.2 km/h 14.8 km/h 35 % 0 mm
21:03 26.2 °C 9.6 °C 1004.6 hPa North 10.9 km/h 18.5 km/h 35 % 0 mm
21:08 26.2 °C 9.5 °C 1004.6 hPa North 10.5 km/h 16.7 km/h 35 % 0 mm
21:13 25.9 °C 9.7 °C 1004.6 hPa North 5.3 km/h 7.4 km/h 36 % 0 mm
21:18 25.8 °C 9.6 °C 1004.6 hPa North 6.4 km/h 11.1 km/h 36 % 0 mm
21:23 25.7 °C 9.5 °C 1004.6 hPa North 7.6 km/h 13 km/h 36 % 0 mm
21:28 25.6 °C 9.8 °C 1004.6 hPa North 5.1 km/h 7.4 km/h 37 % 0 mm
21:33 25.3 °C 9.6 °C 1004.6 hPa North 5.5 km/h 9.3 km/h 37 % 0 mm
21:38 25.2 °C 9.5 °C 1004.6 hPa North 3.9 km/h 5.6 km/h 37 % 0 mm
21:43 25 °C 9.7 °C 1004.6 hPa North 2.6 km/h 5.6 km/h 38 % 0 mm
21:48 24.8 °C 9.6 °C 1005 hPa North 5.3 km/h 7.4 km/h 38 % 0 mm
21:53 24.7 °C 9.4 °C 1005 hPa North 4.7 km/h 7.4 km/h 38 % 0 mm
21:58 24.6 °C 9.3 °C 1005 hPa North 4 km/h 5.6 km/h 38 % 0 mm
22:03 24.5 °C 9.2 °C 1004.6 hPa North 4 km/h 5.6 km/h 38 % 0 mm
22:08 24.4 °C 8.8 °C 1004.6 hPa North 4.7 km/h 7.4 km/h 37 % 0 mm
22:13 24.6 °C 8.9 °C 1004.3 hPa North 5.3 km/h 7.4 km/h 37 % 0 mm
22:18 24.4 °C 8.8 °C 1004.3 hPa North 6.8 km/h 13 km/h 37 % 0 mm
22:23 24.4 °C 8.8 °C 1004.3 hPa North 3.1 km/h 6.4 km/h 37 % 0 mm
22:28 24.4 °C 8.8 °C 1004.3 hPa North 6.6 km/h 7.4 km/h 37 % 0 mm
22:33 24.4 °C 8.8 °C 1004.3 hPa North 3.9 km/h 5.6 km/h 37 % 0 mm
22:38 24.4 °C 8.4 °C 1004.3 hPa North 5.1 km/h 7.4 km/h 36 % 0 mm
22:43 24.6 °C 8.1 °C 1004.3 hPa North 6.1 km/h 9.3 km/h 35 % 0 mm
22:48 24.7 °C 8.2 °C 1004.3 hPa North 5.5 km/h 9.7 km/h 35 % 0 mm
22:53 24.7 °C 8.2 °C 1004.3 hPa North 7.6 km/h 11.1 km/h 35 % 0 mm
22:58 24.8 °C 7.8 °C 1004.3 hPa North 3.9 km/h 5.6 km/h 34 % 0 mm
23:03 24.7 °C 7.8 °C 1003.9 hPa NNW 5.6 km/h 7.4 km/h 34 % 0 mm
23:08 24.7 °C 7.7 °C 1003.9 hPa NNW 5.5 km/h 7.4 km/h 34 % 0 mm
23:13 24.7 °C 7.7 °C 1003.6 hPa NNW 5.6 km/h 7.4 km/h 34 % 0 mm
23:18 24.6 °C 7.7 °C 1003.6 hPa North 4.2 km/h 5.6 km/h 34 % 0 mm
23:23 24.6 °C 7.7 °C 1003.3 hPa NNW 6.8 km/h 8 km/h 34 % 0 mm
23:28 24.4 °C 7.9 °C 1002.9 hPa NNW 9.2 km/h 11.1 km/h 35 % 0 mm
23:33 24.1 °C 8.1 °C 1002.9 hPa North 3.4 km/h 6.4 km/h 36 % 0 mm
23:38 23.9 °C 7.9 °C 1002.9 hPa NNW 8 km/h 11.1 km/h 36 % 0 mm
23:43 24.1 °C 7.6 °C 1002.9 hPa WNW 10.1 km/h 14.8 km/h 35 % 0 mm
23:48 24.2 °C 8.2 °C 1002.9 hPa West 9 km/h 14.8 km/h 36 % 0 mm
23:53 24.2 °C 8.6 °C 1002.9 hPa North 14 km/h 18.5 km/h 37 % 0 mm
23:58 24.3 °C 8.3 °C 1002.6 hPa West 10.6 km/h 14.8 km/h 36 % 0 mm
Ararat Weather
Compliments of Weather Underground - 2.25 mb
Click here to send mail.


ABOUT

Live weather data from Ararat, Victoria, Australia, 3377
Data uploaded from Cumulus every 5 minutes to Weather Underground.
This site then downloads the raw data for formatting and display.
Metric and imperial data can be displayed. Graphs and historical data available.
Includes Sun and Moon times and rain image live from BOM.

Check out Ararat Weather on Facebook, Twitter and Google +

Help support ongoing costs by checking out the ads





Follow @AraratWeather